Time;durP1;ratioP1;P1;durP2;ratioP2;P2;SDS_P1;SDS_P2;PMS_P1;PMS_P2;Temp;Humidity;BMP_temperature;BMP_pressure;BME280_temperature;BME280_humidity;BME280_pressure;Samples;Min_cycle;Max_cycle;Signal;HPM_P1;HPM_P2
2022/11/02 00:00:12;;;;;;;900.20;838.13;;;;;;;12.63;73.71;101418.22;690034;28;22396;-66
2022/11/02 00:00:39;;;;;;;906.08;843.67;;;;;;;12.60;73.44;101424.84;688798;28;61459;-66
2022/11/02 00:01:04;;;;;;;900.50;838.33;;;;;;;12.61;73.78;101420.25;687904;28;92277;-66
2022/11/02 00:01:28;;;;;;;908.95;846.55;;;;;;;12.61;73.39;101414.84;687222;28;115038;-66
2022/11/02 00:01:49;;;;;;;910.80;848.28;;;;;;;12.60;73.60;101422.13;689392;28;115354;-66
2022/11/02 00:02:11;;;;;;;908.45;846.00;;;;;;;12.59;73.56;101412.28;692991;28;22399;-66
2022/11/02 00:02:32;;;;;;;912.45;849.90;;;;;;;12.59;73.86;101417.72;692862;28;22415;-66
2022/11/02 00:02:54;;;;;;;912.83;850.25;;;;;;;12.59;73.46;101422.31;692899;28;24434;-66
2022/11/02 00:03:16;;;;;;;906.13;843.80;;;;;;;12.57;73.97;101419.75;691373;28;69421;-66
2022/11/02 00:03:37;;;;;;;903.22;840.80;;;;;;;12.58;73.88;101424.16;691774;28;45985;-66
2022/11/02 00:03:59;;;;;;;905.22;842.75;;;;;;;12.58;73.91;101417.91;692982;28;21554;-66
2022/11/02 00:04:21;;;;;;;899.08;836.88;;;;;;;12.56;73.72;101415.34;692824;28;23473;-66
2022/11/02 00:04:42;;;;;;;898.40;836.22;;;;;;;12.56;73.92;101419.94;691181;28;70350;-66
2022/11/02 00:05:03;;;;;;;906.72;844.45;;;;;;;12.55;74.12;101421.78;692105;28;22401;-66
2022/11/02 00:05:25;;;;;;;900.35;838.28;;;;;;;12.55;73.77;101424.50;693038;28;21678;-66
2022/11/02 00:05:47;;;;;;;921.55;858.75;;;;;;;12.55;74.07;101423.66;692085;28;46254;-66
2022/11/02 00:06:08;;;;;;;900.70;838.63;;;;;;;12.55;73.89;101426.38;692331;28;44398;-66
2022/11/02 00:06:29;;;;;;;901.15;839.00;;;;;;;12.55;74.11;101416.38;692471;28;21643;-66
2022/11/02 00:06:50;;;;;;;894.25;832.15;;;;;;;12.55;73.88;101420.94;692322;28;23443;-66
2022/11/02 00:07:14;;;;;;;904.80;842.20;;;;;;;12.51;74.07;101419.63;691046;28;67486;-66
2022/11/02 00:07:35;;;;;;;907.63;845.10;;;;;;;12.53;73.86;101423.84;692084;28;44379;-66
2022/11/02 00:07:56;;;;;;;914.05;851.42;;;;;;;12.54;73.86;101419.25;692377;28;45404;-66
2022/11/02 00:08:18;;;;;;;907.33;844.90;;;;;;;12.54;73.68;101424.66;692932;28;22403;-66
2022/11/02 00:08:40;;;;;;;893.00;830.95;;;;;;;12.52;73.93;101419.41;692365;28;22427;-66
2022/11/02 00:09:01;;;;;;;900.97;838.70;;;;;;;12.51;73.78;101425.88;691362;28;69511;-66
2022/11/02 00:09:23;;;;;;;902.88;840.63;;;;;;;12.51;74.25;101427.75;693040;28;23472;-66
2022/11/02 00:09:44;;;;;;;896.25;834.15;;;;;;;12.51;74.30;101428.59;692904;28;22287;-66
2022/11/02 00:10:06;;;;;;;903.10;840.83;;;;;;;12.51;74.13;101420.47;692633;28;21541;-66
2022/11/02 00:10:29;;;;;;;894.03;832.05;;;;;;;12.51;74.04;101419.63;692183;28;46069;-66
2022/11/02 00:10:50;;;;;;;909.63;847.03;;;;;;;12.51;74.15;101425.03;691015;28;69432;-66
2022/11/02 00:11:14;;;;;;;910.17;847.67;;;;;;;12.50;74.03;101424.19;690542;28;90952;-66
2022/11/02 00:11:40;;;;;;;878.78;817.28;;;;;;;12.50;74.08;101420.63;692354;28;38872;-66
2022/11/02 00:12:02;;;;;;;884.73;823.03;;;;;;;12.49;74.52;101413.50;692091;28;45098;-66
2022/11/02 00:12:23;;;;;;;884.83;823.10;;;;;;;12.50;74.30;101423.34;691321;28;67547;-66
2022/11/02 00:12:45;;;;;;;899.85;837.60;;;;;;;12.51;74.42;101425.88;692734;28;20849;-66
2022/11/02 00:13:07;;;;;;;904.58;842.22;;;;;;;12.51;74.53;101425.88;693015;28;23706;-66
2022/11/02 00:13:28;;;;;;;899.85;837.78;;;;;;;12.51;74.44;101422.34;691948;28;45333;-66
2022/11/02 00:13:49;;;;;;;891.30;829.42;;;;;;;12.52;74.44;101422.13;691606;28;45302;-66
2022/11/02 00:14:10;;;;;;;879.95;818.47;;;;;;;12.52;74.38;101427.53;693148;28;22171;-66
2022/11/02 00:14:32;;;;;;;868.40;807.40;;;;;;;12.50;74.17;101418.75;692878;28;22271;-66
2022/11/02 00:14:53;;;;;;;879.40;818.00;;;;;;;12.52;74.20;101424.84;691894;28;44038;-66
2022/11/02 00:15:15;;;;;;;901.17;839.20;;;;;;;12.51;74.15;101423.16;692968;28;22359;-66
2022/11/02 00:15:36;;;;;;;882.78;821.35;;;;;;;12.50;74.30;101426.88;691945;28;46340;-66
2022/11/02 00:16:00;;;;;;;888.60;826.92;;;;;;;12.49;74.01;101425.22;692639;28;22240;-66
2022/11/02 00:16:24;;;;;;;892.47;830.53;;;;;;;12.51;74.41;101433.16;690476;28;92158;-65
2022/11/02 00:16:45;;;;;;;884.42;822.53;;;;;;;12.50;74.43;101426.03;690320;28;92122;-66
2022/11/02 00:17:06;;;;;;;880.75;819.17;;;;;;;12.49;74.21;101427.91;692431;28;22422;-66
2022/11/02 00:17:28;;;;;;;885.53;823.95;;;;;;;12.50;74.62;101424.19;692836;28;22430;-66
2022/11/02 00:17:53;;;;;;;879.90;818.47;;;;;;;12.50;74.73;101423.34;692048;28;44347;-65
2022/11/02 00:18:17;;;;;;;883.80;822.25;;;;;;;12.50;74.40;101428.75;689756;28;115294;-65
2022/11/02 00:18:38;;;;;;;900.75;838.55;;;;;;;12.49;74.70;101425.22;690041;28;90304;-65
2022/11/02 00:19:00;;;;;;;919.63;856.97;;;;;;;12.48;74.58;101423.50;692043;28;45221;-66
2022/11/02 00:19:21;;;;;;;921.08;858.38;;;;;;;12.49;74.34;101421.63;692903;28;23528;-66
2022/11/02 00:19:43;;;;;;;929.40;866.47;;;;;;;12.49;74.30;101427.06;692856;28;21316;-65
2022/11/02 00:20:05;;;;;;;932.42;868.15;;;;;;;12.49;74.65;101419.78;688546;28;46322;-65
2022/11/02 00:20:26;;;;;;;917.17;854.03;;;;;;;12.50;74.70;101426.88;691578;28;46331;-64
2022/11/02 00:20:47;;;;;;;909.88;847.53;;;;;;;12.50;74.62;101423.34;689142;28;46388;-66
2022/11/02 00:21:10;;;;;;;917.92;855.25;;;;;;;12.50;74.46;101421.47;690074;28;23652;-64
2022/11/02 00:21:33;;;;;;;919.13;856.50;;;;;;;12.51;74.55;101422.34;689070;28;70141;-65
2022/11/02 00:21:55;;;;;;;910.10;847.78;;;;;;;12.47;74.37;101416.41;692062;28;45235;-65
2022/11/02 00:22:16;;;;;;;922.95;860.25;;;;;;;12.49;74.39;101422.50;691356;28;69308;-66
2022/11/02 00:22:38;;;;;;;920.15;857.55;;;;;;;12.50;74.07;101417.91;692834;28;23422;-65
2022/11/02 00:23:01;;;;;;;924.05;861.15;;;;;;;12.47;74.20;101419.09;692872;28;22395;-65
2022/11/02 00:23:23;;;;;;;929.20;866.30;;;;;;;12.50;74.13;101423.34;690404;28;92346;-65
2022/11/02 00:23:44;;;;;;;910.03;847.63;;;;;;;12.50;74.08;101420.63;692339;28;21533;-65
2022/11/02 00:24:07;;;;;;;918.70;856.03;;;;;;;12.49;74.19;101422.50;691801;28;46380;-66
2022/11/02 00:24:29;;;;;;;918.28;855.67;;;;;;;12.51;74.28;101422.34;691110;28;70594;-65
2022/11/02 00:24:51;;;;;;;926.05;863.03;;;;;;;12.51;74.46;101422.34;690456;28;44219;-65
2022/11/02 00:25:13;;;;;;;919.47;856.67;;;;;;;12.51;74.38;101420.47;691688;28;45235;-66
2022/11/02 00:25:38;;;;;;;931.75;868.60;;;;;;;12.51;74.20;101425.88;691779;28;46567;-65
2022/11/02 00:26:00;;;;;;;925.33;862.42;;;;;;;12.51;73.89;101423.16;690413;28;92124;-65
2022/11/02 00:26:21;;;;;;;923.83;861.00;;;;;;;12.52;74.28;101427.53;692217;28;44379;-66
2022/11/02 00:26:42;;;;;;;919.80;857.10;;;;;;;12.52;74.07;101422.13;692033;28;23388;-66
2022/11/02 00:27:05;;;;;;;918.22;855.35;;;;;;;12.51;74.08;101427.75;692215;28;20202;-65
2022/11/02 00:27:27;;;;;;;921.78;858.90;;;;;;;12.50;74.07;101429.59;690497;28;69496;-65
2022/11/02 00:27:48;;;;;;;909.42;847.13;;;;;;;12.49;73.71;101425.22;691848;28;46435;-66
2022/11/02 00:28:10;;;;;;;915.38;852.95;;;;;;;12.50;73.57;101426.88;692607;28;23465;-65
2022/11/02 00:28:32;;;;;;;913.15;850.63;;;;;;;12.47;73.39;101424.53;689251;28;23703;-66
2022/11/02 00:28:53;;;;;;;910.97;848.50;;;;;;;12.48;73.75;101426.22;689151;28;44479;-65
2022/11/02 00:29:14;;;;;;;913.10;850.60;;;;;;;12.48;73.75;101422.69;689218;28;46457;-66
2022/11/02 00:29:36;;;;;;;921.25;858.45;;;;;;;12.48;73.56;101422.69;686200;28;45267;-65
2022/11/02 00:29:58;;;;;;;929.08;866.03;;;;;;;12.48;73.69;101422.69;687376;28;21548;-65
2022/11/02 00:30:20;;;;;;;920.03;857.28;;;;;;;12.47;73.43;101415.56;686655;28;44207;-65
2022/11/02 00:30:41;;;;;;;929.60;866.50;;;;;;;12.47;73.81;101421.81;686505;28;44393;-65
2022/11/02 00:31:03;;;;;;;925.33;862.42;;;;;;;12.48;73.34;101428.09;688257;28;963;-66
2022/11/02 00:31:25;;;;;;;905.17;842.90;;;;;;;12.48;73.54;101417.25;687914;28;23468;-66
2022/11/02 00:31:46;;;;;;;929.33;866.22;;;;;;;12.46;73.51;101422.84;688679;28;46369;-66
2022/11/02 00:32:07;;;;;;;931.90;868.80;;;;;;;12.45;73.45;101418.44;690013;28;22203;-65
2022/11/02 00:32:28;;;;;;;936.30;873.05;;;;;;;12.44;73.61;101422.16;690015;28;21547;-65
2022/11/02 00:32:50;;;;;;;913.15;850.58;;;;;;;12.45;73.51;101418.44;689883;28;22379;-65
2022/11/02 00:33:13;;;;;;;924.80;861.97;;;;;;;12.47;73.52;101410.97;686229;28;70282;-65
2022/11/02 00:33:36;;;;;;;931.60;868.60;;;;;;;12.46;73.25;101417.44;687903;28;43988;-66
2022/11/02 00:33:57;;;;;;;928.50;865.60;;;;;;;12.46;73.43;101412.00;687987;28;69449;-66
2022/11/02 00:34:22;;;;;;;924.08;861.28;;;;;;;12.46;73.40;101412.00;689427;28;38054;-66
2022/11/02 00:34:44;;;;;;;936.20;872.92;;;;;;;12.46;73.63;101420.13;687289;28;21144;-66
2022/11/02 00:35:06;;;;;;;935.15;871.85;;;;;;;12.46;73.50;101416.56;687441;28;69428;-65
2022/11/02 00:35:27;;;;;;;933.15;870.03;;;;;;;12.42;73.10;101416.06;689450;28;22310;-66
2022/11/02 00:35:49;;;;;;;919.97;857.22;;;;;;;12.42;73.12;101416.06;690079;28;46225;-65
2022/11/02 00:36:12;;;;;;;925.08;862.10;;;;;;;12.43;73.50;101412.34;688685;28;45059;-64
2022/11/02 00:36:33;;;;;;;915.92;853.30;;;;;;;12.43;73.38;101412.34;689657;28;45246;-65
2022/11/02 00:36:54;;;;;;;926.30;863.22;;;;;;;12.44;73.43;101416.72;691464;28;22379;-65
2022/11/02 00:37:17;;;;;;;921.50;858.38;;;;;;;12.43;73.10;101418.59;692521;28;21569;-66
2022/11/02 00:37:39;;;;;;;919.22;856.38;;;;;;;12.44;73.50;101419.44;690750;28;68392;-66
2022/11/02 00:38:00;;;;;;;919.45;856.55;;;;;;;12.44;73.19;101423.03;691326;28;46379;-65
2022/11/02 00:38:21;;;;;;;927.45;864.40;;;;;;;12.43;73.01;101417.78;690539;28;23398;-66
2022/11/02 00:38:42;;;;;;;926.95;863.83;;;;;;;12.43;73.23;101420.47;691182;28;44382;-65
2022/11/02 00:39:04;;;;;;;929.65;866.47;;;;;;;12.41;73.28;101426.06;689549;28;21468;-65
2022/11/02 00:39:26;;;;;;;916.55;853.78;;;;;;;12.41;73.14;101427.91;687214;28;32123;-65
2022/11/02 00:39:48;;;;;;;922.80;859.78;;;;;;;12.41;73.20;101426.06;685748;28;45151;-65
2022/11/02 00:40:10;;;;;;;935.08;871.63;;;;;;;12.40;72.76;101427.09;683993;28;23504;-65
2022/11/02 00:40:32;;;;;;;922.03;859.17;;;;;;;12.39;72.56;101429.97;683566;28;45213;-66
2022/11/02 00:40:53;;;;;;;929.50;866.42;;;;;;;12.38;72.63;101429.13;684375;28;46392;-65
2022/11/02 00:41:14;;;;;;;933.92;870.70;;;;;;;12.37;72.95;101426.59;686553;28;22388;-66
2022/11/02 00:41:35;;;;;;;932.28;869.08;;;;;;;12.36;72.78;101425.72;683946;28;44365;-65
2022/11/02 00:41:58;;;;;;;928.47;865.40;;;;;;;12.37;73.03;101424.72;686416;28;23256;-65
2022/11/02 00:42:19;;;;;;;929.83;866.72;;;;;;;12.37;73.08;101434.72;686206;28;46284;-64
2022/11/02 00:42:40;;;;;;;936.30;872.90;;;;;;;12.36;73.03;101427.59;686370;28;46181;-65
2022/11/02 00:43:01;;;;;;;926.80;863.70;;;;;;;12.36;72.60;101430.31;687718;28;22182;-65
2022/11/02 00:43:24;;;;;;;923.90;860.95;;;;;;;12.36;72.66;101433.00;690022;28;21544;-65
2022/11/02 00:43:45;;;;;;;917.97;855.13;;;;;;;12.35;72.65;101434.03;688864;28;44393;-66
2022/11/02 00:44:06;;;;;;;918.45;855.67;;;;;;;12.34;72.84;101432.34;689802;28;23487;-65
2022/11/02 00:44:27;;;;;;;926.45;863.45;;;;;;;12.35;72.68;101432.19;689331;28;46324;-66
2022/11/02 00:44:49;;;;;;;924.72;861.83;;;;;;;12.34;72.51;101425.06;690227;28;22428;-65
2022/11/02 00:45:11;;;;;;;917.42;854.78;;;;;;;12.34;72.47;101430.47;691400;28;44452;-66
2022/11/02 00:45:32;;;;;;;917.53;854.88;;;;;;;12.31;72.67;101428.09;691851;28;45034;-66
2022/11/02 00:45:53;;;;;;;921.67;858.83;;;;;;;12.31;72.64;101421.84;692795;28;23459;-65
2022/11/02 00:46:17;;;;;;;924.92;861.92;;;;;;;12.32;72.51;101429.81;690587;28;69212;-66
2022/11/02 00:46:38;;;;;;;920.85;857.95;;;;;;;12.32;72.45;101429.81;691662;28;46337;-66
2022/11/02 00:46:59;;;;;;;920.33;857.30;;;;;;;12.32;72.56;101424.41;692134;28;21537;-65
2022/11/02 00:47:20;;;;;;;921.35;858.25;;;;;;;12.31;72.80;101428.09;686888;28;23566;-65
2022/11/02 00:47:43;;;;;;;916.53;853.78;;;;;;;12.32;72.84;101428.94;687199;28;21478;-65
2022/11/02 00:48:04;;;;;;;921.35;858.45;;;;;;;12.30;72.96;101425.56;687410;28;27297;-65
2022/11/02 00:48:26;;;;;;;928.70;865.63;;;;;;;12.31;72.98;101428.09;689008;28;44256;-65
2022/11/02 00:48:49;;;;;;;917.28;854.47;;;;;;;12.31;72.86;101425.41;688526;28;67539;-65
2022/11/02 00:49:11;;;;;;;921.38;858.50;;;;;;;12.31;72.63;101422.69;688320;28;69146;-65
2022/11/02 00:49:33;;;;;;;920.50;857.70;;;;;;;12.31;72.76;101427.28;686980;28;23436;-66
2022/11/02 00:49:55;;;;;;;921.17;858.35;;;;;;;12.31;72.59;101427.28;683075;28;67477;-65
2022/11/02 00:50:17;;;;;;;918.28;855.55;;;;;;;12.30;72.75;101423.69;684276;28;22247;-65
2022/11/02 00:50:38;;;;;;;919.80;856.97;;;;;;;12.30;72.77;101417.44;684378;28;46334;-65
2022/11/02 00:50:59;;;;;;;926.53;863.53;;;;;;;12.29;72.48;101427.44;687801;28;24354;-66
2022/11/02 00:51:24;;;;;;;925.80;862.90;;;;;;;12.27;72.63;101418.63;684776;28;92102;-65
2022/11/02 00:51:45;;;;;;;915.40;852.70;;;;;;;12.29;72.39;101415.75;686935;28;46325;-65
2022/11/02 00:52:09;;;;;;;916.03;853.22;;;;;;;12.28;72.72;101420.31;683316;28;90335;-65
2022/11/02 00:52:30;;;;;;;918.17;855.40;;;;;;;12.27;72.76;101418.63;687880;28;21499;-65
2022/11/02 00:52:52;;;;;;;920.80;857.90;;;;;;;12.30;72.90;101422.88;686628;28;21534;-65
2022/11/02 00:53:14;;;;;;;928.17;865.00;;;;;;;12.29;72.71;101422.03;683850;28;70355;-65
2022/11/02 00:53:43;;;;;;;920.00;857.20;;;;;;;12.29;72.37;101419.31;679612;28;135858;-65
2022/11/02 00:54:04;;;;;;;910.72;848.28;;;;;;;12.30;72.38;101425.56;686147;28;24407;-66
2022/11/02 00:54:27;;;;;;;917.38;854.63;;;;;;;12.29;72.36;101416.59;684429;28;44364;-66
2022/11/02 00:54:49;;;;;;;918.10;855.38;;;;;;;12.28;72.62;101417.63;684178;28;69439;-66
2022/11/02 00:55:10;;;;;;;922.88;860.08;;;;;;;12.26;72.17;101417.78;687180;28;21514;-66
2022/11/02 00:55:34;;;;;;;926.15;863.20;;;;;;;12.29;72.39;101426.59;685475;28;92022;-66
2022/11/02 00:55:58;;;;;;;917.55;854.85;;;;;;;12.28;72.35;101425.75;684729;28;92271;-65
2022/11/02 00:56:20;;;;;;;919.75;856.97;;;;;;;12.28;72.43;101425.75;686519;28;44269;-66
2022/11/02 00:56:41;;;;;;;916.72;854.00;;;;;;;12.26;72.03;101416.94;688093;28;23477;-66
2022/11/02 00:57:02;;;;;;;923.17;859.97;;;;;;;12.29;72.23;101423.88;690991;28;21133;-66
2022/11/02 00:57:26;;;;;;;915.38;852.63;;;;;;;12.28;72.02;101428.44;689263;28;37137;-65
2022/11/02 00:57:49;;;;;;;915.70;852.92;;;;;;;12.28;72.15;101424.91;689016;28;44354;-66
2022/11/02 00:58:10;;;;;;;924.88;861.83;;;;;;;12.28;71.98;101431.16;686454;28;46336;-66
2022/11/02 00:58:32;;;;;;;933.92;870.63;;;;;;;12.26;72.28;101425.91;683885;28;23449;-66
2022/11/02 00:58:54;;;;;;;912.63;849.97;;;;;;;12.29;72.35;101432.00;684752;28;45284;-66
2022/11/02 00:59:15;;;;;;;908.70;846.25;;;;;;;12.28;71.90;101423.03;688238;28;23483;-66
2022/11/02 00:59:37;;;;;;;909.58;847.00;;;;;;;12.26;72.33;101425.91;689739;28;21579;-66
2022/11/02 00:59:59;;;;;;;920.25;857.33;;;;;;;12.26;72.18;101423.22;687930;28;69392;-66
2022/11/02 01:00:20;;;;;;;919.65;856.80;;;;;;;12.26;71.93;101427.78;687024;28;47066;-66
2022/11/02 01:00:41;;;;;;;917.10;854.30;;;;;;;12.18;71.98;101415.09;686890;28;21317;-65
2022/11/02 01:01:05;;;;;;;914.72;852.03;;;;;;;12.24;71.87;101424.38;686228;28;46243;-66
2022/11/02 01:01:26;;;;;;;916.03;853.30;;;;;;;12.23;71.94;101420.84;685396;28;67607;-65
2022/11/02 01:01:48;;;;;;;922.58;859.53;;;;;;;12.23;72.16;101430.84;687060;28;22403;-64
2022/11/02 01:02:09;;;;;;;915.17;852.58;;;;;;;12.22;72.08;101432.69;686461;28;46278;-65
2022/11/02 01:02:32;;;;;;;929.40;866.30;;;;;;;12.22;72.16;101426.44;685140;28;21493;-65
2022/11/02 01:02:53;;;;;;;917.95;855.08;;;;;;;12.21;71.91;101432.84;683455;28;67350;-65
2022/11/02 01:03:17;;;;;;;914.25;851.58;;;;;;;12.20;71.85;101425.75;685347;28;14924;-63
2022/11/02 01:03:39;;;;;;;911.65;849.00;;;;;;;12.20;71.95;101432.00;686781;28;21531;-65
2022/11/02 01:04:03;;;;;;;926.80;863.63;;;;;;;12.20;72.37;101431.19;685908;28;46381;-65
2022/11/02 01:04:24;;;;;;;919.20;856.28;;;;;;;12.20;72.08;101431.19;683259;28;91713;-65
2022/11/02 01:04:46;;;;;;;919.22;856.30;;;;;;;12.18;72.17;101431.34;688093;28;23734;-65
2022/11/02 01:05:08;;;;;;;919.38;856.53;;;;;;;12.18;72.10;101431.34;690630;28;22215;-65
2022/11/02 01:05:30;;;;;;;929.38;866.17;;;;;;;12.18;72.53;101427.81;688891;28;46305;-65
2022/11/02 01:05:51;;;;;;;921.33;858.42;;;;;;;12.17;71.98;101426.94;688991;28;44354;-65
2022/11/02 01:06:14;;;;;;;912.25;849.75;;;;;;;12.16;72.06;101422.56;687107;28;21546;-65
2022/11/02 01:06:36;;;;;;;917.22;854.58;;;;;;;12.16;72.03;101422.56;685530;28;69161;-65
2022/11/02 01:06:58;;;;;;;930.40;867.05;;;;;;;12.16;72.17;101427.97;685344;28;46407;-65
2022/11/02 01:07:19;;;;;;;919.78;856.63;;;;;;;12.17;72.33;101429.66;686356;28;44371;-65
2022/11/02 01:07:40;;;;;;;919.38;856.50;;;;;;;12.15;72.07;101428.97;684557;28;21546;-65
2022/11/02 01:08:02;;;;;;;924.50;861.40;;;;;;;12.13;72.06;101428.31;684624;28;21685;-64
2022/11/02 01:08:24;;;;;;;912.88;850.15;;;;;;;12.15;72.12;101425.44;686400;28;46318;-65
2022/11/02 01:08:45;;;;;;;924.42;861.42;;;;;;;12.14;72.52;101424.56;689090;28;43689;-65
2022/11/02 01:09:06;;;;;;;920.38;857.47;;;;;;;12.14;72.39;101429.16;689804;28;21997;-64
2022/11/02 01:09:27;;;;;;;905.00;842.67;;;;;;;12.13;72.08;101425.59;688198;28;22388;-65
2022/11/02 01:09:49;;;;;;;906.38;843.97;;;;;;;12.12;72.61;101426.63;686944;28;23296;-65
2022/11/02 01:10:12;;;;;;;932.42;869.13;;;;;;;12.12;72.13;101426.63;682074;28;91791;-64
2022/11/02 01:10:34;;;;;;;922.10;859.20;;;;;;;12.13;72.46;101424.75;683855;28;46572;-65
2022/11/02 01:10:55;;;;;;;925.92;862.85;;;;;;;12.13;72.19;101422.03;689389;28;20900;-65
2022/11/02 01:11:20;;;;;;;926.08;862.90;;;;;;;12.08;72.17;101417.13;685720;28;46286;-65
2022/11/02 01:11:41;;;;;;;915.78;852.90;;;;;;;12.11;72.14;101422.19;681860;28;92280;-65
2022/11/02 01:12:04;;;;;;;933.63;870.17;;;;;;;12.10;72.58;101420.53;682843;28;46345;-65
2022/11/02 01:12:25;;;;;;;932.97;869.60;;;;;;;12.10;72.47;101423.25;682296;28;46396;-65
2022/11/02 01:12:47;;;;;;;932.95;869.58;;;;;;;12.12;72.31;101417.66;686586;28;22406;-65
2022/11/02 01:13:09;;;;;;;920.33;857.42;;;;;;;12.12;72.39;101418.50;686501;28;67369;-65
2022/11/02 01:13:30;;;;;;;913.67;850.97;;;;;;;12.12;72.37;101421.19;684630;28;21535;-65
2022/11/02 01:13:51;;;;;;;928.45;865.28;;;;;;;12.10;72.42;101409.69;687440;28;10043;-65
2022/11/02 01:14:13;;;;;;;930.88;867.58;;;;;;;12.08;72.33;101415.28;687693;28;22466;-65
2022/11/02 01:14:35;;;;;;;928.55;865.35;;;;;;;12.11;72.13;101415.94;689015;28;44368;-65
2022/11/02 01:14:58;;;;;;;924.78;861.65;;;;;;;12.09;72.65;101418.81;692708;28;1893;-65
2022/11/02 01:15:19;;;;;;;921.53;858.42;;;;;;;12.11;72.34;101413.25;696074;28;23463;-63
2022/11/02 01:15:41;;;;;;;918.10;855.17;;;;;;;12.10;72.60;101409.69;698075;28;23383;-66
2022/11/02 01:16:03;;;;;;;928.30;865.13;;;;;;;12.10;72.48;101412.41;695466;28;69350;-65
2022/11/02 01:16:24;;;;;;;931.05;867.88;;;;;;;12.09;72.39;101413.41;694640;28;22247;-66
2022/11/02 01:16:45;;;;;;;917.28;854.42;;;;;;;12.09;72.27;101410.72;691775;28;44393;-65
2022/11/02 01:17:07;;;;;;;923.65;860.60;;;;;;;12.09;72.30;101410.72;692280;28;22387;-65
2022/11/02 01:17:29;;;;;;;930.92;867.60;;;;;;;12.10;72.11;101411.53;691564;28;44356;-66
2022/11/02 01:17:50;;;;;;;921.70;858.67;;;;;;;12.07;72.20;101410.88;689054;28;20819;-65
2022/11/02 01:18:11;;;;;;;923.33;860.20;;;;;;;12.08;72.38;101414.41;689715;28;22383;-65
2022/11/02 01:18:32;;;;;;;916.45;853.53;;;;;;;12.06;72.52;101417.28;688406;28;46640;-65
2022/11/02 01:18:56;;;;;;;922.88;859.72;;;;;;;12.06;72.27;101406.47;689650;28;23471;-66
2022/11/02 01:19:18;;;;;;;925.38;862.22;;;;;;;12.04;72.40;101416.63;684961;28;92302;-65
2022/11/02 01:19:40;;;;;;;923.65;860.55;;;;;;;12.06;72.06;101411.88;689590;28;44382;-65
2022/11/02 01:20:01;;;;;;;921.13;858.13;;;;;;;12.07;72.33;101415.47;689254;28;22407;-65
2022/11/02 01:20:23;;;;;;;921.95;858.97;;;;;;;12.06;72.44;101417.28;689783;28;23556;-65
2022/11/02 01:20:44;;;;;;;922.17;859.10;;;;;;;12.07;72.05;101418.16;688104;28;69391;-65
2022/11/02 01:21:07;;;;;;;922.65;859.60;;;;;;;12.06;72.10;101416.47;689972;28;45026;-65
2022/11/02 01:21:28;;;;;;;926.70;863.47;;;;;;;12.04;72.30;101416.63;691543;28;47214;-65
2022/11/02 01:21:51;;;;;;;927.33;863.92;;;;;;;12.05;72.09;101417.47;689890;28;23410;-65
2022/11/02 01:22:12;;;;;;;919.78;856.75;;;;;;;12.05;72.00;101414.75;690953;28;70406;-64
2022/11/02 01:22:33;;;;;;;923.53;860.47;;;;;;;12.03;72.36;101423.06;692473;28;22414;-65
2022/11/02 01:22:54;;;;;;;931.88;868.50;;;;;;;12.03;72.25;101414.09;689873;28;22383;-64
2022/11/02 01:23:15;;;;;;;927.20;864.03;;;;;;;12.02;72.03;101420.50;689396;28;22372;-64
2022/11/02 01:23:38;;;;;;;924.42;861.30;;;;;;;12.00;72.16;101414.44;689096;28;22415;-65
2022/11/02 01:23:59;;;;;;;918.97;856.00;;;;;;;12.01;72.33;101421.56;688243;28;69255;-65
2022/11/02 01:24:20;;;;;;;912.03;849.35;;;;;;;12.00;72.28;101417.97;689890;28;22324;-65
2022/11/02 01:24:41;;;;;;;926.20;863.03;;;;;;;11.99;71.97;101426.25;690639;28;22357;-65
2022/11/02 01:25:05;;;;;;;934.53;871.05;;;;;;;11.98;71.92;101421.88;688566;28;69417;-65
2022/11/02 01:25:26;;;;;;;916.13;853.25;;;;;;;11.99;72.28;101427.13;691895;28;44313;-65
2022/11/02 01:25:47;;;;;;;922.83;859.78;;;;;;;11.98;72.10;101416.47;692306;28;22390;-65
2022/11/02 01:26:08;;;;;;;926.00;862.90;;;;;;;11.99;72.32;101423.56;692688;28;22377;-65
2022/11/02 01:26:30;;;;;;;934.47;871.15;;;;;;;11.98;71.88;101425.44;688990;28;46048;-65
2022/11/02 01:26:52;;;;;;;928.70;865.58;;;;;;;11.98;71.88;101424.59;689819;28;21536;-65
2022/11/02 01:27:13;;;;;;;922.25;859.25;;;;;;;11.97;72.29;101426.44;691426;28;46515;-65
2022/11/02 01:27:34;;;;;;;924.97;861.95;;;;;;;11.97;71.73;101429.13;692233;28;22415;-65
2022/11/02 01:27:56;;;;;;;927.55;864.38;;;;;;;11.96;72.15;101424.75;692018;28;23435;-65
2022/11/02 01:28:18;;;;;;;926.38;863.08;;;;;;;11.96;71.94;101432.88;689291;28;44369;-65
2022/11/02 01:28:39;;;;;;;922.30;859.17;;;;;;;11.96;71.87;101430.19;691217;28;44399;-64
2022/11/02 01:29:01;;;;;;;917.72;854.90;;;;;;;11.95;71.86;101428.47;691639;28;45279;-65
2022/11/02 01:29:25;;;;;;;916.78;853.95;;;;;;;11.94;72.25;101421.34;692816;28;14657;-65
2022/11/02 01:29:47;;;;;;;909.92;847.30;;;;;;;11.95;72.20;101425.78;691965;28;21530;-65
2022/11/02 01:30:10;;;;;;;904.28;841.88;;;;;;;11.95;71.73;101424.94;690733;28;67506;-66
2022/11/02 01:30:32;;;;;;;913.15;850.42;;;;;;;11.93;72.43;101422.41;691225;28;67521;-65
2022/11/02 01:30:53;;;;;;;924.40;861.22;;;;;;;11.95;71.92;101424.94;691159;28;46304;-65
2022/11/02 01:31:15;;;;;;;927.95;864.75;;;;;;;11.93;71.78;101427.81;692493;28;21551;-65
2022/11/02 01:31:37;;;;;;;922.13;859.10;;;;;;;11.92;72.20;101428.81;691869;28;45373;-64
2022/11/02 01:31:58;;;;;;;917.83;854.92;;;;;;;11.92;72.31;101428.81;692761;28;23462;-65
2022/11/02 01:32:19;;;;;;;915.03;852.13;;;;;;;11.81;72.03;101405.59;693397;28;23319;-64
2022/11/02 01:32:40;;;;;;;920.70;857.60;;;;;;;11.90;72.37;101426.25;693012;28;21532;-64
2022/11/02 01:33:05;;;;;;;917.75;854.95;;;;;;;11.89;72.43;101424.53;692773;28;21591;-63
2022/11/02 01:33:26;;;;;;;929.25;866.03;;;;;;;11.89;72.18;101421.84;689742;28;115108;-63
2022/11/02 01:33:48;;;;;;;921.08;858.05;;;;;;;11.90;72.31;101423.53;687734;28;68336;-65
2022/11/02 01:34:11;;;;;;;913.47;850.70;;;;;;;11.89;72.13;101423.69;691108;28;22405;-65
2022/11/02 01:34:33;;;;;;;905.30;842.85;;;;;;;11.89;72.02;101429.94;688598;28;69440;-65
2022/11/02 01:34:55;;;;;;;914.72;851.90;;;;;;;11.90;72.23;101428.94;689261;28;44399;-65
2022/11/02 01:35:16;;;;;;;928.72;865.42;;;;;;;11.90;72.57;101423.53;690089;28;21539;-65
2022/11/02 01:35:40;;;;;;;924.58;861.45;;;;;;;11.91;72.35;101424.38;690499;28;14989;-65
2022/11/02 01:36:03;;;;;;;924.72;861.65;;;;;;;11.89;72.21;101424.53;690285;28;22395;-66
2022/11/02 01:36:25;;;;;;;913.92;851.35;;;;;;;11.90;72.23;101420.00;687515;28;92883;-65
2022/11/02 01:36:46;;;;;;;911.42;848.83;;;;;;;11.90;71.97;101422.69;690170;28;21512;-65
2022/11/02 01:37:09;;;;;;;920.75;857.63;;;;;;;11.90;71.99;101420.81;688933;28;44544;-65
2022/11/02 01:37:31;;;;;;;918.25;855.35;;;;;;;11.90;72.06;101420.81;689997;28;26143;-65
2022/11/02 01:37:52;;;;;;;897.45;835.20;;;;;;;11.91;72.00;101421.66;688491;28;69171;-65
2022/11/02 01:38:13;;;;;;;907.95;845.38;;;;;;;11.92;72.27;101425.25;691735;28;22421;-65
2022/11/02 01:38:35;;;;;;;919.35;856.35;;;;;;;11.90;71.89;101420.00;689169;28;22437;-64